Time;durP1;ratioP1;P1;durP2;ratioP2;P2;SDS_P1;SDS_P2;PMS_P1;PMS_P2;Temp;Humidity;BMP_temperature;BMP_pressure;BME280_temperature;BME280_humidity;BME280_pressure;Samples;Min_cycle;Max_cycle;Signal;HPM_P1;HPM_P2
2021/08/14 00:00:37;;;;;;;8.1;4.2;;;;;;;21.14;80.6543;945.0262;;;;
2021/08/14 00:03:02;;;;;;;6.5;4.2;;;;;;;21.05;80.76758;945.0148;;;;
2021/08/14 00:05:27;;;;;;;6.9;4.2;;;;;;;20.99;81.11914;945.0458;;;;
2021/08/14 00:07:53;;;;;;;8.4;4.1;;;;;;;21.04;81.09375;945.0264;;;;
2021/08/14 00:10:18;;;;;;;8.8;4.6;;;;;;;21;81.1084;944.9922;;;;
2021/08/14 00:12:43;;;;;;;5.7;4.1;;;;;;;20.88;81.53027;944.9395;;;;
2021/08/14 00:15:11;;;;;;;7.5;4;;;;;;;20.78;82.11914;945.0375;;;;
2021/08/14 00:17:36;;;;;;;6.8;3.8;;;;;;;20.64;82.7373;945.0118;;;;
2021/08/14 00:20:01;;;;;;;7.1;4.4;;;;;;;20.54;82.87207;944.913;;;;
2021/08/14 00:22:27;;;;;;;10.4;4.1;;;;;;;20.52;83.07715;944.8608;;;;
2021/08/14 00:24:52;;;;;;;7.5;4.1;;;;;;;20.61;82.45117;944.9554;;;;
2021/08/14 00:27:17;;;;;;;7.6;3.8;;;;;;;20.6;82.46094;944.8665;;;;
2021/08/14 00:29:45;;;;;;;6.8;4.1;;;;;;;20.5;82.82813;944.7932;;;;
2021/08/14 00:32:08;;;;;;;5.8;3.9;;;;;;;20.51;82.90039;944.7533;;;;
2021/08/14 00:34:35;;;;;;;6.1;4.3;;;;;;;20.72;81.86426;944.791;;;;
2021/08/14 00:37:00;;;;;;;8.3;4.4;;;;;;;20.78;81.47656;944.742;;;;
2021/08/14 00:39:27;;;;;;;5.8;4.1;;;;;;;20.79;81.57324;944.775;;;;
2021/08/14 00:41:52;;;;;;;6.9;4.1;;;;;;;20.79;81.54004;944.7733;;;;
2021/08/14 00:44:17;;;;;;;9.4;4.7;;;;;;;20.64;82.0127;944.8078;;;;
2021/08/14 00:46:42;;;;;;;7.1;4;;;;;;;20.57;82.29102;944.7587;;;;
2021/08/14 00:49:08;;;;;;;6.8;4.3;;;;;;;20.52;82.62109;944.7701;;;;
2021/08/14 00:51:33;;;;;;;8.1;4.6;;;;;;;20.59;82.30762;944.7267;;;;
2021/08/14 00:53:59;;;;;;;8.5;4.1;;;;;;;20.65;81.87402;944.8239;;;;
2021/08/14 00:56:25;;;;;;;7;4.3;;;;;;;20.61;81.88867;944.7847;;;;
2021/08/14 00:58:51;;;;;;;8.7;4.4;;;;;;;20.63;81.8584;944.8331;;;;
2021/08/14 01:01:16;;;;;;;7.1;4.5;;;;;;;20.74;81.35254;944.7971;;;;
2021/08/14 01:03:43;;;;;;;6.9;4.1;;;;;;;20.64;81.80176;944.7327;;;;
2021/08/14 01:06:08;;;;;;;7.9;4.4;;;;;;;20.64;81.86035;944.7658;;;;
2021/08/14 01:08:34;;;;;;;10;4.8;;;;;;;20.57;82.11719;944.8088;;;;
2021/08/14 01:10:59;;;;;;;8.3;4.5;;;;;;;20.61;81.94922;944.8033;;;;
2021/08/14 01:13:25;;;;;;;5.9;4.1;;;;;;;20.67;81.72656;944.8502;;;;
2021/08/14 01:16:00;;;;;;;6.4;4.5;;;;;;;20.67;81.61035;944.8356;;;;
2021/08/14 01:18:25;;;;;;;10.9;5.2;;;;;;;20.52;81.94434;944.8203;;;;
2021/08/14 01:20:51;;;;;;;7.7;4.7;;;;;;;20.48;82.07715;944.825;;;;
2021/08/14 01:23:19;;;;;;;8;4.5;;;;;;;20.32;82.84277;944.8353;;;;
2021/08/14 01:25:44;;;;;;;7;4.3;;;;;;;20.17;83.6748;944.8297;;;;
2021/08/14 01:28:13;;;;;;;6.8;4.8;;;;;;;20.19;83.59766;944.7922;;;;
2021/08/14 01:30:37;;;;;;;7.7;4.2;;;;;;;20.24;83.09473;944.7672;;;;
2021/08/14 01:33:14;;;;;;;6;4.3;;;;;;;20.25;83.00293;944.7332;;;;
2021/08/14 01:35:40;;;;;;;7.2;4.4;;;;;;;20.27;82.90137;944.8056;;;;
2021/08/14 01:38:05;;;;;;;7.2;4.9;;;;;;;20.25;83.02637;944.7954;;;;
2021/08/14 01:40:34;;;;;;;7.9;4.9;;;;;;;20.25;83.08301;944.8618;;;;
2021/08/14 01:42:59;;;;;;;8.5;5.1;;;;;;;20.3;82.90625;944.8859;;;;
2021/08/14 01:45:25;;;;;;;9.8;4.4;;;;;;;20.28;82.71777;944.8692;;;;
2021/08/14 01:47:50;;;;;;;9.5;4.9;;;;;;;20.19;83.0957;944.8585;;;;
2021/08/14 01:50:16;;;;;;;9.3;4.3;;;;;;;20.1;83.53613;944.8794;;;;
2021/08/14 01:52:41;;;;;;;7.4;4.6;;;;;;;20.13;83.5293;944.8247;;;;
2021/08/14 01:55:10;;;;;;;5.3;3.9;;;;;;;20.14;83.35449;944.7947;;;;
2021/08/14 01:57:37;;;;;;;6.1;4.1;;;;;;;20.1;83.50098;944.7896;;;;
2021/08/14 02:00:02;;;;;;;8.5;4.2;;;;;;;20.17;83.40918;944.7673;;;;
2021/08/14 02:02:29;;;;;;;8.2;4.8;;;;;;;20.24;82.82617;944.8038;;;;
2021/08/14 02:04:53;;;;;;;8.8;4.5;;;;;;;20.27;82.51758;944.8055;;;;
2021/08/14 02:07:19;;;;;;;8;4.4;;;;;;;20.32;82.58398;944.7683;;;;
2021/08/14 02:09:44;;;;;;;6.9;4.4;;;;;;;20.32;82.00098;944.7739;;;;
2021/08/14 02:12:11;;;;;;;7.4;4.3;;;;;;;20.2;82.84277;944.6997;;;;
2021/08/14 02:14:36;;;;;;;7.3;4.3;;;;;;;20.31;82.2793;944.7612;;;;
2021/08/14 02:17:03;;;;;;;6.6;4.3;;;;;;;20.34;82.00391;944.7809;;;;
2021/08/14 02:19:28;;;;;;;8.8;4.6;;;;;;;20.36;81.69336;944.7271;;;;
2021/08/14 02:21:54;;;;;;;7.2;4.1;;;;;;;20.31;81.97559;944.6923;;;;
2021/08/14 02:24:19;;;;;;;7.5;5;;;;;;;20.35;81.66699;944.6819;;;;
2021/08/14 02:26:45;;;;;;;7.1;4.4;;;;;;;20.3;81.83203;944.6992;;;;
2021/08/14 02:29:10;;;;;;;9.9;4.3;;;;;;;20.27;82.01563;944.6858;;;;
2021/08/14 02:31:35;;;;;;;6.3;4.4;;;;;;;20.25;82.32617;944.6344;;;;
2021/08/14 02:34:00;;;;;;;7.8;4.2;;;;;;;20.22;82.26074;944.5894;;;;
2021/08/14 02:36:27;;;;;;;5.6;4;;;;;;;20.15;82.71582;944.686;;;;
2021/08/14 02:38:52;;;;;;;6.4;4;;;;;;;20.02;83.62598;944.6461;;;;
2021/08/14 02:41:18;;;;;;;9.4;4.6;;;;;;;20.08;83.05371;944.6573;;;;
2021/08/14 02:43:43;;;;;;;7.2;4;;;;;;;20.11;83.03418;944.6545;;;;
2021/08/14 02:46:09;;;;;;;6.8;4.5;;;;;;;20.17;82.55566;944.608;;;;
2021/08/14 02:48:34;;;;;;;6.8;4.6;;;;;;;20.27;81.9209;944.6139;;;;
2021/08/14 02:51:02;;;;;;;9.9;4.1;;;;;;;20.25;81.91699;944.6498;;;;
2021/08/14 02:53:27;;;;;;;7.3;4.5;;;;;;;20.18;82.2207;944.5609;;;;
2021/08/14 02:55:53;;;;;;;6.4;4.2;;;;;;;20.26;81.94336;944.5275;;;;
2021/08/14 02:58:18;;;;;;;6.3;3.8;;;;;;;20.18;81.95215;944.5772;;;;
2021/08/14 03:00:44;;;;;;;6.2;4.2;;;;;;;20.21;81.875;944.6802;;;;
2021/08/14 03:03:09;;;;;;;7.9;4.2;;;;;;;20.2;81.78027;944.6932;;;;
2021/08/14 03:05:35;;;;;;;7.6;4.3;;;;;;;20.14;81.91895;944.6822;;;;
2021/08/14 03:08:00;;;;;;;7.5;4.1;;;;;;;20.08;82.29395;944.7051;;;;
2021/08/14 03:10:27;;;;;;;6.5;4.3;;;;;;;19.99;82.73242;944.7111;;;;
2021/08/14 03:12:52;;;;;;;9.5;4.5;;;;;;;19.99;82.19727;944.6269;;;;
2021/08/14 03:15:28;;;;;;;7.2;4.4;;;;;;;19.94;81.77832;944.6181;;;;
2021/08/14 03:17:53;;;;;;;8.1;4.5;;;;;;;19.87;82.35059;944.6297;;;;
2021/08/14 03:20:22;;;;;;;6.3;4.3;;;;;;;19.88;82.92188;944.7088;;;;
2021/08/14 03:22:47;;;;;;;7;4.5;;;;;;;19.79;83.56934;944.6955;;;;
2021/08/14 03:25:16;;;;;;;9.3;4.6;;;;;;;19.84;83.5332;944.6739;;;;
2021/08/14 03:27:41;;;;;;;8.5;4.5;;;;;;;19.77;83.91406;944.615;;;;
2021/08/14 03:30:21;;;;;;;6.7;4.7;;;;;;;19.66;84.41797;944.6054;;;;
2021/08/14 03:32:49;;;;;;;6.6;4.2;;;;;;;19.7;84.24023;944.5828;;;;
2021/08/14 03:35:14;;;;;;;7.2;4.8;;;;;;;19.7;84.46191;944.5917;;;;
2021/08/14 03:37:41;;;;;;;7.2;4;;;;;;;19.63;84.83301;944.6099;;;;
2021/08/14 03:40:06;;;;;;;8.7;4.6;;;;;;;19.64;84.77832;944.5919;;;;
2021/08/14 03:42:31;;;;;;;7.3;4.9;;;;;;;19.69;84.27148;944.5759;;;;
2021/08/14 03:44:58;;;;;;;7.2;4.1;;;;;;;19.64;84.42676;944.546;;;;
2021/08/14 03:47:23;;;;;;;7.4;4.5;;;;;;;19.58;84.70703;944.6216;;;;
2021/08/14 03:49:51;;;;;;;8.1;4.2;;;;;;;19.67;84.27051;944.6077;;;;
2021/08/14 03:52:16;;;;;;;7.7;4;;;;;;;19.67;84.08398;944.6286;;;;
2021/08/14 03:54:47;;;;;;;9.3;4.8;;;;;;;19.57;84.34473;944.65;;;;
2021/08/14 03:57:10;;;;;;;6.6;4.3;;;;;;;19.64;84.13477;944.6881;;;;
2021/08/14 04:00:11;;;;;;;7.6;4.8;;;;;;;19.6;84.13965;944.6383;;;;
2021/08/14 04:02:42;;;;;;;7.3;4.7;;;;;;;19.47;84.69824;944.6755;;;;
2021/08/14 04:05:07;;;;;;;7.5;4.5;;;;;;;19.28;85.55762;944.631;;;;
2021/08/14 04:07:32;;;;;;;10.4;4.5;;;;;;;19.32;85.35645;944.6473;;;;
2021/08/14 04:09:58;;;;;;;8.9;4.2;;;;;;;19.38;85.01855;944.6465;;;;
2021/08/14 04:12:23;;;;;;;7.1;4.7;;;;;;;19.41;84.82617;944.6356;;;;
2021/08/14 04:14:50;;;;;;;6.4;4.3;;;;;;;19.23;85.82813;944.6592;;;;
2021/08/14 04:17:19;;;;;;;8.6;4.9;;;;;;;19.08;86.40332;944.7158;;;;
2021/08/14 04:19:45;;;;;;;7.2;4.4;;;;;;;19.14;85.97363;944.7214;;;;
2021/08/14 04:22:13;;;;;;;8.3;4.6;;;;;;;19.26;85.54199;944.7169;;;;
2021/08/14 04:24:38;;;;;;;7.4;4.4;;;;;;;19.35;85.22168;944.7075;;;;
2021/08/14 04:27:06;;;;;;;7.1;4.2;;;;;;;19.38;85.06543;944.6538;;;;
2021/08/14 04:29:32;;;;;;;8.4;4.8;;;;;;;19.54;84.49121;944.7133;;;;
2021/08/14 04:31:56;;;;;;;7.5;4.6;;;;;;;19.56;84.30566;944.815;;;;
2021/08/14 04:34:21;;;;;;;7.4;4.4;;;;;;;19.54;84.16406;944.8572;;;;
2021/08/14 04:36:47;;;;;;;6.9;4.5;;;;;;;19.58;84.38086;944.8631;;;;
2021/08/14 04:39:12;;;;;;;8.1;4.1;;;;;;;19.66;83.90723;944.8315;;;;
2021/08/14 04:41:37;;;;;;;9;4.6;;;;;;;19.67;83.7334;944.8533;;;;
2021/08/14 04:44:02;;;;;;;6.6;4.2;;;;;;;19.63;83.81836;944.8563;;;;
2021/08/14 04:46:27;;;;;;;6.4;4.3;;;;;;;19.65;83.66992;944.8383;;;;
2021/08/14 04:52:50;;;;;;;7.7;4.6;;;;;;;19.77;83.75293;944.8614;;;;
2021/08/14 04:55:16;;;;;;;6.2;4.5;;;;;;;19.84;83.21777;944.884;;;;
2021/08/14 04:57:42;;;;;;;6.9;4.2;;;;;;;19.9;82.58887;944.9219;;;;
2021/08/14 05:00:08;;;;;;;7;4.1;;;;;;;20;82.11719;944.9365;;;;
2021/08/14 05:02:33;;;;;;;8.1;4.4;;;;;;;19.92;82.3584;944.9531;;;;
2021/08/14 05:04:58;;;;;;;6.1;3.9;;;;;;;19.96;82.24902;944.9501;;;;
2021/08/14 05:07:24;;;;;;;7.4;4.3;;;;;;;19.95;82.05859;944.9713;;;;
2021/08/14 05:09:50;;;;;;;7.3;4.3;;;;;;;19.95;82.25879;944.9033;;;;
2021/08/14 05:12:15;;;;;;;6.9;4.4;;;;;;;20.02;82.17871;944.9922;;;;
2021/08/14 05:14:40;;;;;;;8.4;5.3;;;;;;;19.92;82.56836;944.9992;;;;
2021/08/14 05:17:05;;;;;;;10.3;4.7;;;;;;;20.07;82.19922;945.0561;;;;
2021/08/14 05:19:31;;;;;;;6.9;4.1;;;;;;;20.21;81.56055;945.0748;;;;
2021/08/14 05:21:56;;;;;;;8.8;3.9;;;;;;;20.29;80.26563;945.0114;;;;
2021/08/14 05:24:24;;;;;;;5.8;4.7;;;;;;;20.27;80.33301;945.0062;;;;
2021/08/14 05:26:49;;;;;;;9.2;4.5;;;;;;;20.26;80.77637;945.0314;;;;
2021/08/14 05:29:15;;;;;;;5.6;4.3;;;;;;;20.36;80.97949;945.0265;;;;
2021/08/14 05:31:40;;;;;;;6.3;4.3;;;;;;;20.48;80.12695;944.9877;;;;
2021/08/14 05:34:06;;;;;;;7.2;4.7;;;;;;;20.54;79.45898;945.0336;;;;
2021/08/14 05:36:31;;;;;;;7.6;4.4;;;;;;;20.6;79.39844;945.0916;;;;
2021/08/14 05:38:57;;;;;;;6.2;3.8;;;;;;;21.06;77.64551;945.0504;;;;
2021/08/14 05:41:22;;;;;;;6;3.6;;;;;;;22.23;72.64453;945.0662;;;;
2021/08/14 05:43:49;;;;;;;7.7;4;;;;;;;22.72;69.70703;945.0981;;;;
2021/08/14 05:46:14;;;;;;;5.1;3.4;;;;;;;23.61;66.59082;945.0566;;;;
2021/08/14 05:48:41;;;;;;;6.1;3.9;;;;;;;23.8;65.62891;945.0553;;;;
2021/08/14 05:51:06;;;;;;;5.8;3.5;;;;;;;24.02;64.74414;945.0739;;;;
2021/08/14 05:53:31;;;;;;;12.3;4.1;;;;;;;24.34;64;945.0408;;;;
2021/08/14 05:55:56;;;;;;;6.3;3.9;;;;;;;25.27;60.17871;944.931;;;;
2021/08/14 05:58:23;;;;;;;6.1;3.9;;;;;;;25.58;58.83691;945.0178;;;;
2021/08/14 06:00:48;;;;;;;7.1;3.6;;;;;;;27.06;55.21582;944.9969;;;;
2021/08/14 06:03:14;;;;;;;6.8;3.6;;;;;;;27.39;53.3457;944.9803;;;;
2021/08/14 06:05:39;;;;;;;6.9;3.6;;;;;;;27.27;53.50879;944.9578;;;;
2021/08/14 06:08:04;;;;;;;4.6;3.5;;;;;;;26.72;54.98438;944.9306;;;;
2021/08/14 06:10:33;;;;;;;6.3;3.5;;;;;;;26.93;54.61914;944.9269;;;;
2021/08/14 06:12:58;;;;;;;5.4;3.2;;;;;;;27.39;53.21582;944.9202;;;;
2021/08/14 06:15:33;;;;;;;5.7;3.6;;;;;;;26.94;54.59668;944.8727;;;;
2021/08/14 06:17:58;;;;;;;6.9;4.2;;;;;;;27.53;54.19434;944.8904;;;;
2021/08/14 06:20:23;;;;;;;6.6;4.1;;;;;;;28.28;52.76172;944.8504;;;;
2021/08/14 06:22:51;;;;;;;6.2;3.9;;;;;;;28.75;49.72363;944.8618;;;;
2021/08/14 06:25:16;;;;;;;6.1;3.6;;;;;;;29.46;49.40918;944.8167;;;;
2021/08/14 06:27:43;;;;;;;9.6;4.1;;;;;;;30.37;46.72656;944.7976;;;;
2021/08/14 06:30:08;;;;;;;6.2;3.5;;;;;;;29.8;46.86914;944.7706;;;;
2021/08/14 06:32:34;;;;;;;5.5;3.4;;;;;;;30.03;46.27246;944.7104;;;;
2021/08/14 06:34:59;;;;;;;6.9;3.6;;;;;;;31.53;44.10449;944.7536;;;;
2021/08/14 06:37:25;;;;;;;7.2;3.5;;;;;;;30.03;45.13965;944.6658;;;;
2021/08/14 06:39:50;;;;;;;6.9;3.6;;;;;;;30.89;44.2334;944.7101;;;;
2021/08/14 06:42:16;;;;;;;7.8;3.5;;;;;;;31.3;45.00293;944.7364;;;;
2021/08/14 06:44:41;;;;;;;7.5;4;;;;;;;30.29;44.29395;944.679;;;;
2021/08/14 06:47:07;;;;;;;6.3;3.4;;;;;;;30.29;45.2373;944.7137;;;;
2021/08/14 06:49:32;;;;;;;7.8;3.9;;;;;;;30.8;45.73047;944.707;;;;
2021/08/14 06:51:59;;;;;;;5.8;4.1;;;;;;;30.41;43.94727;944.6959;;;;
2021/08/14 06:54:24;;;;;;;7;3.6;;;;;;;30.95;45.02734;944.6986;;;;
2021/08/14 06:56:50;;;;;;;6;3.7;;;;;;;30.93;42.99414;944.5991;;;;
2021/08/14 06:59:15;;;;;;;6.9;3.4;;;;;;;30.74;43.48926;944.5594;;;;
2021/08/14 07:01:42;;;;;;;3.7;3.3;;;;;;;31.85;41.77539;944.5294;;;;
2021/08/14 07:04:07;;;;;;;4.3;3.1;;;;;;;32.52;40.34863;944.5762;;;;
2021/08/14 07:07:04;;;;;;;5.9;3.4;;;;;;;30.54;43.19629;944.6369;;;;
2021/08/14 07:09:32;;;;;;;7;4;;;;;;;29.4;46.56738;944.5244;;;;
2021/08/14 07:11:57;;;;;;;5.6;3.4;;;;;;;31.81;43.42383;944.4777;;;;
2021/08/14 07:14:25;;;;;;;7;3.7;;;;;;;31.47;42.4707;944.5311;;;;
2021/08/14 07:16:50;;;;;;;4.8;3.5;;;;;;;32.49;41.24707;944.4938;;;;
2021/08/14 07:19:18;;;;;;;5.1;3.3;;;;;;;33.56;38.77051;944.4283;;;;
2021/08/14 07:21:43;;;;;;;6.3;3.6;;;;;;;33.5;39.27051;944.4439;;;;
2021/08/14 07:24:12;;;;;;;4.3;3.6;;;;;;;31.73;40.9502;944.4246;;;;
2021/08/14 07:26:36;;;;;;;6.5;4.3;;;;;;;32.17;40.77344;944.3979;;;;
2021/08/14 07:29:02;;;;;;;6.8;4.2;;;;;;;34.22;39.72949;944.4155;;;;
2021/08/14 07:31:27;;;;;;;7;3.1;;;;;;;32.63;39.47168;944.3506;;;;
2021/08/14 07:33:53;;;;;;;4.3;3.3;;;;;;;31.98;40.31348;944.3508;;;;
2021/08/14 07:36:18;;;;;;;6.5;3.4;;;;;;;32.56;38.87695;944.3409;;;;
2021/08/14 07:38:46;;;;;;;6.4;3.4;;;;;;;34.66;36.41602;944.3063;;;;
2021/08/14 07:41:11;;;;;;;5.3;3.4;;;;;;;35.31;34.83984;944.2852;;;;
2021/08/14 07:43:37;;;;;;;6.6;3.2;;;;;;;36.04;33.93945;944.2461;;;;
2021/08/14 07:46:02;;;;;;;6.7;3.8;;;;;;;35.73;33.50488;944.202;;;;
2021/08/14 07:48:30;;;;;;;5.7;3.4;;;;;;;35.9;33.7832;944.1804;;;;
2021/08/14 07:50:55;;;;;;;5.2;3.4;;;;;;;35.26;35.06445;944.1994;;;;
2021/08/14 07:53:21;;;;;;;5.9;3.8;;;;;;;36.09;33.24121;944.114;;;;
2021/08/14 07:55:46;;;;;;;7.1;3.3;;;;;;;35.6;33.61621;944.1422;;;;
2021/08/14 07:58:12;;;;;;;4.8;3.6;;;;;;;37.33;31.5127;944.1189;;;;
2021/08/14 08:00:36;;;;;;;4.1;2.6;;;;;;;38.41;30.11523;944.0809;;;;
2021/08/14 08:03:03;;;;;;;7;3.5;;;;;;;38.02;29.54395;944.0928;;;;
2021/08/14 08:05:28;;;;;;;4.3;3.4;;;;;;;38.54;29.65039;944.0136;;;;
2021/08/14 08:07:56;;;;;;;6.4;3.3;;;;;;;37.63;31.36328;944.012;;;;
2021/08/14 08:10:21;;;;;;;4.5;3.1;;;;;;;39.3;28.82324;944.0519;;;;
2021/08/14 08:12:49;;;;;;;4.4;3.1;;;;;;;40.49;27.78613;943.9996;;;;
2021/08/14 08:15:14;;;;;;;4.5;3.2;;;;;;;38.29;32.56348;943.9514;;;;
2021/08/14 08:17:41;;;;;;;5.4;2.8;;;;;;;37.65;32.75977;943.8908;;;;
2021/08/14 08:20:10;;;;;;;5.1;2.7;;;;;;;39.87;27.91992;943.8925;;;;
2021/08/14 08:22:36;;;;;;;3.5;2.9;;;;;;;38.78;30.00684;943.8879;;;;
2021/08/14 08:25:01;;;;;;;4.1;2.9;;;;;;;38.37;29.46973;943.8784;;;;
2021/08/14 08:27:29;;;;;;;6;3.7;;;;;;;38.43;31.66113;943.851;;;;
2021/08/14 08:29:54;;;;;;;4.5;3.2;;;;;;;38.78;32.52441;943.9322;;;;
2021/08/14 08:32:23;;;;;;;4;3.4;;;;;;;36.98;34.46875;943.8359;;;;
2021/08/14 08:34:48;;;;;;;5.2;3.1;;;;;;;35.79;36.83301;943.7839;;;;
2021/08/14 08:37:15;;;;;;;5.9;3.5;;;;;;;36.41;36.85938;943.8644;;;;
2021/08/14 08:39:40;;;;;;;6.6;3.6;;;;;;;34.76;39.34277;943.8063;;;;
2021/08/14 08:42:07;;;;;;;3.9;3.4;;;;;;;34.61;40.40234;943.7789;;;;
2021/08/14 08:44:32;;;;;;;8.3;4;;;;;;;35.44;38.08496;943.7921;;;;
2021/08/14 08:46:57;;;;;;;6.8;3.7;;;;;;;34.45;39.36426;943.7717;;;;
2021/08/14 08:49:23;;;;;;;5.8;3.6;;;;;;;34.35;40.17383;943.783;;;;
2021/08/14 08:51:47;;;;;;;4.6;3.3;;;;;;;34.76;37.28027;943.754;;;;
2021/08/14 08:54:12;;;;;;;5.3;3.2;;;;;;;34.98;38.87891;943.7874;;;;
2021/08/14 08:56:37;;;;;;;4.5;3.5;;;;;;;35.56;38.71094;943.7914;;;;
2021/08/14 08:59:02;;;;;;;5.1;3.6;;;;;;;35.61;35.97266;943.7509;;;;
2021/08/14 09:01:29;;;;;;;5.8;3.7;;;;;;;35.87;35.95605;943.7147;;;;
2021/08/14 09:03:54;;;;;;;4.7;3.2;;;;;;;35.37;37.20898;943.7353;;;;
2021/08/14 09:06:19;;;;;;;4.7;3.4;;;;;;;34.47;40.4502;943.7036;;;;
2021/08/14 09:08:44;;;;;;;7.5;3.7;;;;;;;34;40.39551;943.6733;;;;
2021/08/14 09:11:10;;;;;;;6.2;3.3;;;;;;;35.05;38.87305;943.7009;;;;
2021/08/14 09:13:35;;;;;;;4.8;3.1;;;;;;;34.41;40.53027;943.6589;;;;
2021/08/14 09:16:14;;;;;;;3.8;2.7;;;;;;;34.13;40.23926;943.6556;;;;
2021/08/14 09:18:39;;;;;;;3.8;3.2;;;;;;;35.37;36.41211;943.6342;;;;
2021/08/14 09:21:04;;;;;;;4.4;3.3;;;;;;;35.27;38.72266;943.6337;;;;
2021/08/14 09:23:29;;;;;;;3.9;2.9;;;;;;;35.57;37.91406;943.6104;;;;
2021/08/14 09:25:59;;;;;;;5.6;3.4;;;;;;;35.67;38.9502;943.5765;;;;
2021/08/14 09:28:24;;;;;;;4;3.2;;;;;;;33.04;44.55078;943.5086;;;;
2021/08/14 09:30:52;;;;;;;7.3;3.5;;;;;;;33.71;43.73926;943.5284;;;;
2021/08/14 09:33:17;;;;;;;4.3;3.1;;;;;;;32.28;47.2002;943.4629;;;;
2021/08/14 09:36:26;;;;;;;5.9;3.5;;;;;;;33.31;45.55078;943.438;;;;
2021/08/14 09:38:54;;;;;;;5.9;3.4;;;;;;;34.35;41.89648;943.4501;;;;
2021/08/14 09:41:19;;;;;;;4.5;3.4;;;;;;;33.08;44.08691;943.3397;;;;
2021/08/14 09:43:44;;;;;;;5;3.4;;;;;;;32.96;45.13184;943.3681;;;;
2021/08/14 09:46:09;;;;;;;4.4;3.4;;;;;;;33.14;46.60449;943.3908;;;;
2021/08/14 09:48:38;;;;;;;4.3;3.5;;;;;;;33.75;41.25293;943.334;;;;
2021/08/14 09:51:04;;;;;;;4.8;3.3;;;;;;;33.35;46.08496;943.2619;;;;
2021/08/14 09:53:29;;;;;;;4.7;3.5;;;;;;;32.89;47.80273;943.2242;;;;
2021/08/14 09:55:54;;;;;;;6.2;4.1;;;;;;;32.27;47.80957;943.1809;;;;
2021/08/14 09:58:20;;;;;;;7;3.6;;;;;;;32.27;47.62988;943.2302;;;;
2021/08/14 10:00:45;;;;;;;5.3;3.7;;;;;;;33;46.64941;943.1404;;;;
2021/08/14 10:03:10;;;;;;;5.6;3.9;;;;;;;33.34;43.01855;943.08;;;;
2021/08/14 10:05:35;;;;;;;5.3;3.7;;;;;;;33.45;43.78613;943.1284;;;;
2021/08/14 10:08:02;;;;;;;5.6;3.9;;;;;;;33.8;43.27832;943.1105;;;;
2021/08/14 10:10:27;;;;;;;4.9;4;;;;;;;32.75;46.87598;943.0811;;;;
2021/08/14 10:12:53;;;;;;;6.2;3.8;;;;;;;32.22;47.63574;943.0295;;;;
2021/08/14 10:15:20;;;;;;;4.6;3.7;;;;;;;32.32;47.25195;943.0347;;;;
2021/08/14 10:17:48;;;;;;;6;3.9;;;;;;;31.45;49.67383;943.0076;;;;
2021/08/14 10:20:13;;;;;;;6.2;4;;;;;;;32.05;49.40625;942.9805;;;;
2021/08/14 10:22:40;;;;;;;7;4.3;;;;;;;32.58;47.29102;942.948;;;;
2021/08/14 10:25:05;;;;;;;7.1;4.2;;;;;;;31.83;51.63281;942.9398;;;;
2021/08/14 10:27:34;;;;;;;6.3;4.2;;;;;;;31.98;49.74414;942.86;;;;
2021/08/14 10:30:00;;;;;;;6.8;4.1;;;;;;;31.92;49.96484;942.7989;;;;
2021/08/14 10:32:24;;;;;;;7.5;4.4;;;;;;;31.53;51.6709;942.7955;;;;
2021/08/14 10:34:49;;;;;;;6.2;4.1;;;;;;;32.43;47.41895;942.8028;;;;
2021/08/14 10:37:16;;;;;;;6.3;3.8;;;;;;;33.31;45.81543;942.7598;;;;
2021/08/14 10:39:44;;;;;;;6;4;;;;;;;32.76;46.09766;942.7853;;;;
2021/08/14 10:42:09;;;;;;;8.8;4.7;;;;;;;33.43;43.54395;942.7601;;;;
2021/08/14 10:44:34;;;;;;;5.4;4;;;;;;;33.57;45.14453;942.7751;;;;
2021/08/14 10:47:01;;;;;;;5.7;3.8;;;;;;;34.01;44.04492;942.7445;;;;
2021/08/14 10:49:26;;;;;;;5;3.5;;;;;;;33.56;46.05762;942.7238;;;;
2021/08/14 10:51:52;;;;;;;5.5;4.1;;;;;;;34.13;43.45313;942.6788;;;;
2021/08/14 10:54:16;;;;;;;6.3;4.4;;;;;;;34.74;44.12695;942.6609;;;;
2021/08/14 10:56:42;;;;;;;6.6;4.1;;;;;;;35.46;41.41992;942.5591;;;;
2021/08/14 10:59:07;;;;;;;7.6;4;;;;;;;35.71;41.46582;942.5025;;;;
2021/08/14 11:01:33;;;;;;;6.7;4;;;;;;;35.73;41.83008;942.5483;;;;
2021/08/14 11:03:57;;;;;;;5.1;3.5;;;;;;;35.47;41.94043;942.5162;;;;
2021/08/14 11:06:23;;;;;;;6.3;3.9;;;;;;;35.9;41.36328;942.493;;;;
2021/08/14 11:08:48;;;;;;;5.8;4.4;;;;;;;35.88;40.9502;942.3953;;;;
2021/08/14 11:11:17;;;;;;;6.6;4.5;;;;;;;36.16;40.97461;942.4139;;;;
2021/08/14 11:13:42;;;;;;;4;3.4;;;;;;;35.61;42.1582;942.3842;;;;
2021/08/14 11:16:08;;;;;;;5.6;3.7;;;;;;;36.58;39.76563;942.2823;;;;
2021/08/14 11:18:38;;;;;;;6.1;3.9;;;;;;;36.84;39.16992;942.2942;;;;
2021/08/14 11:21:06;;;;;;;7.2;3.9;;;;;;;37.51;39.23926;942.288;;;;
2021/08/14 11:23:35;;;;;;;5;4;;;;;;;37.22;39.08203;942.2328;;;;
2021/08/14 11:26:02;;;;;;;4.3;3.8;;;;;;;36.34;40.43457;942.1892;;;;
2021/08/14 11:28:28;;;;;;;5.7;3.8;;;;;;;36.77;40.14453;942.1813;;;;
2021/08/14 11:30:52;;;;;;;6;4;;;;;;;34.99;43.5957;942.1166;;;;
2021/08/14 11:33:19;;;;;;;5.3;3.6;;;;;;;36.04;42.35449;942.1298;;;;
2021/08/14 11:35:44;;;;;;;6.4;4;;;;;;;35.91;39.5498;942.0655;;;;
2021/08/14 11:38:11;;;;;;;6.9;4.3;;;;;;;35.45;42.50488;942.0877;;;;
2021/08/14 11:40:36;;;;;;;7.2;3.9;;;;;;;35.77;41.43555;942.0873;;;;
2021/08/14 11:43:01;;;;;;;4.4;3.9;;;;;;;36.62;40.16895;942.0709;;;;
2021/08/14 11:45:26;;;;;;;6.3;4.3;;;;;;;36.75;39.58594;942.0047;;;;
2021/08/14 11:47:53;;;;;;;5.5;3.9;;;;;;;36.82;41.53027;942.0253;;;;
2021/08/14 11:50:18;;;;;;;5.8;4.1;;;;;;;36.03;42.53418;941.9263;;;;
2021/08/14 11:52:43;;;;;;;6.8;4.2;;;;;;;35.74;43.06348;941.9517;;;;
2021/08/14 11:55:08;;;;;;;6.2;4.2;;;;;;;34.91;45.37402;941.9167;;;;
2021/08/14 11:57:33;;;;;;;6.7;4.3;;;;;;;35.79;42.80371;941.9211;;;;
2021/08/14 11:59:59;;;;;;;5.7;4.2;;;;;;;35.98;41.43066;941.9473;;;;
2021/08/14 12:02:25;;;;;;;6.9;3.9;;;;;;;36.71;39.95898;941.9205;;;;
2021/08/14 12:04:49;;;;;;;5.4;3.9;;;;;;;36.98;38.64844;941.9026;;;;
2021/08/14 12:07:14;;;;;;;7.1;4;;;;;;;36.98;39.99316;941.907;;;;
2021/08/14 12:12:07;;;;;;;5.7;4.1;;;;;;;36.31;40.31152;941.8669;;;;
2021/08/14 12:14:33;;;;;;;4.7;3.9;;;;;;;36.85;39.57129;941.8631;;;;
2021/08/14 12:16:59;;;;;;;5.9;4.4;;;;;;;36.12;40.64551;941.7541;;;;
2021/08/14 12:19:25;;;;;;;6.1;3.8;;;;;;;35.92;41.20801;941.8187;;;;
2021/08/14 12:21:50;;;;;;;6.2;4.1;;;;;;;34.47;44.11328;941.8452;;;;
2021/08/14 12:24:15;;;;;;;5.8;4.4;;;;;;;34.74;43.95898;941.8567;;;;
2021/08/14 12:26:41;;;;;;;6.1;4;;;;;;;34.87;45.3584;941.7866;;;;
2021/08/14 12:29:06;;;;;;;8.4;4.4;;;;;;;34.88;44.15332;941.843;;;;
2021/08/14 12:31:31;;;;;;;5.7;4;;;;;;;34.71;42.8457;941.837;;;;
2021/08/14 12:33:56;;;;;;;7.4;3.8;;;;;;;33.89;45.88574;941.7636;;;;
2021/08/14 12:36:21;;;;;;;6;3.6;;;;;;;33.16;49.94531;941.7695;;;;
2021/08/14 12:38:50;;;;;;;5;4.4;;;;;;;33.2;47.83496;941.6856;;;;
2021/08/14 12:41:20;;;;;;;5.3;4.1;;;;;;;33.69;46.41895;941.7332;;;;
2021/08/14 12:43:45;;;;;;;6.2;4;;;;;;;33.75;47.01465;941.7107;;;;
2021/08/14 12:46:10;;;;;;;6;3.8;;;;;;;33.88;46.57129;941.6642;;;;
2021/08/14 12:48:35;;;;;;;7.5;4.5;;;;;;;33.32;47.74023;941.6685;;;;
2021/08/14 12:51:02;;;;;;;5.8;3.9;;;;;;;33.86;46.52148;941.6082;;;;
2021/08/14 12:53:27;;;;;;;6;4.3;;;;;;;33.85;47.12207;941.6219;;;;
2021/08/14 12:55:57;;;;;;;7.3;3.9;;;;;;;33.99;45.15039;941.5891;;;;
2021/08/14 12:58:20;;;;;;;5.5;4.5;;;;;;;34.12;46.2832;941.5948;;;;
2021/08/14 13:00:47;;;;;;;8.5;4.6;;;;;;;34.18;44.81934;941.5653;;;;
2021/08/14 13:03:12;;;;;;;7.9;4.5;;;;;;;34.09;45.09961;941.5559;;;;
2021/08/14 13:05:39;;;;;;;6.3;4.1;;;;;;;33.96;46.55469;941.5201;;;;
2021/08/14 13:08:04;;;;;;;5.9;3.9;;;;;;;34.06;44.77148;941.5341;;;;
2021/08/14 13:10:30;;;;;;;5.3;3.9;;;;;;;33.95;44.77246;941.6058;;;;
2021/08/14 13:12:56;;;;;;;6;4.3;;;;;;;33.9;46.25977;941.5447;;;;
2021/08/14 13:15:31;;;;;;;7.1;3.7;;;;;;;34.09;45.83496;941.4993;;;;
2021/08/14 13:17:56;;;;;;;7.3;4.4;;;;;;;33.33;48.00586;941.3765;;;;
2021/08/14 13:20:26;;;;;;;6.5;4.3;;;;;;;33.51;46.91797;941.4073;;;;
2021/08/14 13:22:51;;;;;;;4.8;4.1;;;;;;;33.45;46.82813;941.3994;;;;
2021/08/14 13:25:20;;;;;;;5.1;3.9;;;;;;;33.6;45.76074;941.3816;;;;
2021/08/14 13:27:45;;;;;;;8.3;4.3;;;;;;;33.23;46.99707;941.3465;;;;
2021/08/14 13:30:13;;;;;;;5.2;4;;;;;;;33.64;45.77734;941.347;;;;
2021/08/14 13:32:38;;;;;;;5.8;4;;;;;;;33.64;46.3418;941.3726;;;;
2021/08/14 13:35:03;;;;;;;6.9;3.9;;;;;;;33.62;46.34082;941.3186;;;;
2021/08/14 13:37:28;;;;;;;8;4.4;;;;;;;33.57;47.00879;941.2623;;;;
2021/08/14 13:39:54;;;;;;;5.7;4.2;;;;;;;33.38;47.90234;941.3116;;;;
2021/08/14 13:42:19;;;;;;;5.5;4;;;;;;;33.65;47.19727;941.2944;;;;
2021/08/14 13:44:45;;;;;;;6.7;4.1;;;;;;;33.35;46.38477;941.293;;;;
2021/08/14 13:47:10;;;;;;;7.3;4.2;;;;;;;33.49;46.60352;941.285;;;;
2021/08/14 13:49:37;;;;;;;6.3;4.2;;;;;;;33.5;46.87012;941.3103;;;;
2021/08/14 13:52:02;;;;;;;6.9;4.3;;;;;;;33.42;46.55957;941.2236;;;;
2021/08/14 13:54:27;;;;;;;5.3;4.2;;;;;;;32.88;47.30859;941.2186;;;;
2021/08/14 13:56:54;;;;;;;6.3;3.8;;;;;;;32.9;46.83105;941.1362;;;;
2021/08/14 13:59:19;;;;;;;7.4;4.1;;;;;;;32.94;47.59277;941.2203;;;;
2021/08/14 14:01:44;;;;;;;8.1;4.2;;;;;;;33.03;47.72168;941.2285;;;;
2021/08/14 14:04:10;;;;;;;7.8;4.8;;;;;;;33.12;47.58789;941.2137;;;;
2021/08/14 14:06:36;;;;;;;7.5;4.3;;;;;;;33.1;47.9209;941.1733;;;;
2021/08/14 14:09:01;;;;;;;5.8;4;;;;;;;32.91;48.47656;941.1933;;;;
2021/08/14 14:11:28;;;;;;;5.7;4.2;;;;;;;32.69;49.66699;941.1895;;;;
2021/08/14 14:13:54;;;;;;;7;4.4;;;;;;;32.7;49.03125;941.0854;;;;
2021/08/14 14:16:24;;;;;;;6.1;4.1;;;;;;;32.65;48.94141;941.1353;;;;
2021/08/14 14:18:52;;;;;;;8.3;4.6;;;;;;;32.78;49.83203;941.1238;;;;
2021/08/14 14:21:17;;;;;;;8.7;4.6;;;;;;;32.6;50.82129;941.1014;;;;
2021/08/14 14:23:41;;;;;;;6.9;4.7;;;;;;;32.83;49.71875;941.1074;;;;
2021/08/14 14:26:09;;;;;;;7.3;4.1;;;;;;;32.87;49.26563;941.0461;;;;